Time;durP1;ratioP1;P1;durP2;ratioP2;P2;SDS_P1;SDS_P2;PMS_P1;PMS_P2;Temp;Humidity;BMP_temperature;BMP_pressure;BME280_temperature;BME280_humidity;BME280_pressure;Samples;Min_cycle;Max_cycle;Signal;HPM_P1;HPM_P2
2022/01/30 00:00:07;;;;;;;13.77;4.15;;;;;;;6.45;51.99;98061.22;5303943;27;20447;-81
2022/01/30 00:02:34;;;;;;;12.45;4.60;;;;;;;7.04;50.49;98075.88;5303633;27;20089;-81
2022/01/30 00:05:02;;;;;;;15.65;4.57;;;;;;;5.88;53.50;98061.75;5304223;27;20028;-81
2022/01/30 00:07:29;;;;;;;14.63;4.50;;;;;;;6.04;53.61;98067.38;5304626;27;20094;-81
2022/01/30 00:09:56;;;;;;;14.80;4.78;;;;;;;6.01;53.22;98070.84;5304180;27;20061;-81
2022/01/30 00:12:34;;;;;;;14.93;4.80;;;;;;;6.26;52.29;98075.38;5304478;27;20070;-81
2022/01/30 00:15:01;;;;;;;17.10;4.32;;;;;;;7.05;50.01;98080.97;5304173;27;20061;-81
2022/01/30 00:17:36;;;;;;;14.65;4.72;;;;;;;6.22;52.17;98074.59;5304325;27;20415;-81
2022/01/30 00:20:07;;;;;;;13.43;4.30;;;;;;;7.25;49.50;98091.50;5304305;27;20049;-81
2022/01/30 00:22:46;;;;;;;13.95;4.95;;;;;;;7.01;50.29;98083.62;5304514;27;20648;-81
2022/01/30 00:25:16;;;;;;;14.90;5.00;;;;;;;6.42;51.42;98075.84;5304741;27;20065;-81
2022/01/30 00:27:50;;;;;;;13.82;4.28;;;;;;;6.76;50.70;98063.81;5304885;27;20033;-81
2022/01/30 00:30:17;;;;;;;14.48;4.32;;;;;;;7.38;48.73;98066.31;5304302;27;20075;-81
2022/01/30 00:32:44;;;;;;;11.95;4.10;;;;;;;7.28;48.75;98072.59;5304940;27;20391;-81
2022/01/30 00:35:33;;;;;;;15.50;3.92;;;;;;;7.30;48.97;98077.69;5304417;27;20122;-81
2022/01/30 00:38:01;;;;;;;11.05;3.78;;;;;;;7.14;49.96;98070.44;5305162;27;20057;-81
2022/01/30 00:40:35;;;;;;;10.52;3.33;;;;;;;6.42;51.71;98066.41;5304489;27;20108;-81
2022/01/30 00:43:04;;;;;;;13.27;3.90;;;;;;;7.48;49.16;98082.28;5304240;27;20049;-81
2022/01/30 00:45:31;;;;;;;14.82;3.87;;;;;;;7.19;51.11;98075.44;5304346;27;20058;-81
2022/01/30 00:47:59;;;;;;;12.00;3.90;;;;;;;6.94;52.28;98075.28;5304494;27;20057;-81
2022/01/30 00:50:26;;;;;;;10.70;3.62;;;;;;;6.93;52.43;98071.03;5303374;27;20109;-81
2022/01/30 00:52:55;;;;;;;11.45;3.58;;;;;;;6.72;52.33;98064.78;5284725;27;20063;-81
2022/01/30 00:55:24;;;;;;;14.98;4.05;;;;;;;7.10;50.78;98047.47;5303916;27;20064;-81
2022/01/30 00:57:52;;;;;;;15.88;3.92;;;;;;;7.16;49.80;98049.87;5303851;27;20071;-81
2022/01/30 01:00:21;;;;;;;15.32;3.67;;;;;;;7.46;49.74;98046.41;5303364;27;20721;-80
2022/01/30 01:02:48;;;;;;;14.90;4.43;;;;;;;7.55;49.62;98047.84;5303858;27;20116;-81
2022/01/30 01:05:15;;;;;;;12.73;3.80;;;;;;;7.48;49.94;98046.34;5303551;27;20076;-81
2022/01/30 01:07:45;;;;;;;13.50;4.00;;;;;;;7.05;52.04;98016.81;5304352;27;20104;-81
2022/01/30 01:10:28;;;;;;;14.10;4.37;;;;;;;6.65;52.69;98025.63;5303956;27;20057;-80
2022/01/30 01:23:52;;;;;;;16.37;4.37;;;;;;;6.29;56.25;97999.28;5303324;27;20059;-81
2022/01/30 01:26:21;;;;;;;16.42;4.80;;;;;;;6.90;53.73;98005.25;5303407;27;20061;-81
2022/01/30 01:28:48;;;;;;;14.23;5.45;;;;;;;6.25;56.37;97992.53;5303989;27;20073;-81
2022/01/30 01:31:15;;;;;;;12.32;4.70;;;;;;;6.41;55.93;97992.16;5303430;26;20388;-81
2022/01/30 01:36:19;;;;;;;14.07;4.78;;;;;;;6.04;56.16;97990.53;5303824;27;20069;-81
2022/01/30 01:38:46;;;;;;;12.45;4.15;;;;;;;6.31;56.09;97994.94;5303707;27;20404;-81
2022/01/30 01:41:17;;;;;;;14.00;4.05;;;;;;;6.29;56.46;97971.09;5303863;27;20112;-81
2022/01/30 01:43:45;;;;;;;16.77;4.15;;;;;;;5.87;58.23;97972.16;5303937;27;20082;-81
2022/01/30 01:46:17;;;;;;;11.60;4.87;;;;;;;5.77;58.04;97969.84;5303578;27;20117;-81
2022/01/30 01:48:45;;;;;;;15.80;4.50;;;;;;;5.72;58.53;97958.84;5304036;27;20108;-81
2022/01/30 01:51:18;;;;;;;14.77;4.22;;;;;;;6.07;57.13;97955.44;5304340;27;20124;-81
2022/01/30 01:53:49;;;;;;;16.08;5.32;;;;;;;5.79;57.53;97952.72;5304221;27;20044;-81
2022/01/30 01:56:17;;;;;;;19.08;4.53;;;;;;;6.28;56.73;97950.63;5304334;27;20743;-81
2022/01/30 01:58:44;;;;;;;11.65;4.18;;;;;;;6.58;55.71;97939.50;5303948;27;20112;-82
2022/01/30 02:01:12;;;;;;;12.68;4.47;;;;;;;6.31;56.41;97955.66;5303495;27;20053;-81
2022/01/30 02:03:39;;;;;;;14.73;4.72;;;;;;;6.17;57.58;97940.69;5303542;27;20041;-81
2022/01/30 02:06:11;;;;;;;14.02;5.07;;;;;;;5.93;58.50;97937.03;5304469;27;20065;-81
2022/01/30 02:08:49;;;;;;;16.05;5.25;;;;;;;6.17;57.26;97939.81;5303619;27;20849;-81
2022/01/30 02:11:29;;;;;;;17.58;5.07;;;;;;;6.42;56.30;97933.16;5303577;27;20424;-81
2022/01/30 02:28:09;;;;;;;11.82;4.18;;;;;;;5.80;56.26;97930.50;5214103;27;20114;-81
2022/01/30 02:30:42;;;;;;;12.40;4.10;;;;;;;6.02;54.91;97918.84;5214833;27;20083;-81
2022/01/30 02:33:09;;;;;;;10.48;3.80;;;;;;;6.18;54.02;97905.66;5264556;27;20057;-81
2022/01/30 02:35:36;;;;;;;12.50;4.05;;;;;;;5.36;57.37;97904.31;5304056;27;20056;-81
2022/01/30 02:38:03;;;;;;;12.13;4.07;;;;;;;6.06;55.01;97894.84;5303716;27;20068;-81
2022/01/30 02:40:34;;;;;;;11.73;3.72;;;;;;;5.85;54.84;97887.72;5304079;26;20077;-81
2022/01/30 02:43:02;;;;;;;15.27;4.22;;;;;;;4.61;58.70;97872.78;5303493;27;20089;-81
2022/01/30 02:45:32;;;;;;;13.07;4.75;;;;;;;5.45;56.89;97868.25;5303909;27;20041;-81
2022/01/30 02:48:15;;;;;;;12.95;4.12;;;;;;;5.15;57.99;97866.44;5304100;27;20091;-81
2022/01/30 02:51:07;;;;;;;12.98;3.85;;;;;;;5.99;56.17;97862.59;5303538;27;20036;-81
2022/01/30 02:53:39;;;;;;;11.45;3.67;;;;;;;6.48;56.09;97850.94;5304451;27;20022;-81
2022/01/30 02:56:06;;;;;;;9.88;2.97;;;;;;;7.06;55.46;97854.31;5304415;27;20056;-81
2022/01/30 02:58:33;;;;;;;13.05;3.90;;;;;;;7.57;53.35;97850.09;5304395;27;20061;-81
2022/01/30 03:01:00;;;;;;;10.00;3.62;;;;;;;7.40;52.83;97863.47;5284156;27;20698;-81
2022/01/30 03:03:28;;;;;;;11.77;3.78;;;;;;;6.48;55.62;97860.34;5304139;27;20037;-81
2022/01/30 03:05:55;;;;;;;11.15;3.75;;;;;;;6.75;54.90;97846.72;5304386;27;20093;-81
2022/01/30 03:08:22;;;;;;;11.07;3.92;;;;;;;6.97;54.17;97847.75;5305073;27;20067;-81
2022/01/30 03:10:49;;;;;;;;;;;;;;;6.83;54.54;97843.94;5304161;27;20784;-81
2022/01/30 03:13:15;;;;;;;10.75;3.62;;;;;;;7.28;53.54;97840.78;5304769;27;19960;-81
2022/01/30 03:15:42;;;;;;;;;;;;;;;7.58;52.65;97847.47;5304918;27;20051;-81
2022/01/30 03:18:09;;;;;;;9.80;3.20;;;;;;;7.62;52.76;97849.03;5303623;27;20337;-81
2022/01/30 03:20:37;;;;;;;;;;;;;;;7.71;52.49;97842.75;5304659;27;20037;-81
2022/01/30 03:23:04;;;;;;;9.98;3.40;;;;;;;8.31;51.47;97844.87;5304448;27;20659;-81
2022/01/30 03:25:32;;;;;;;8.93;3.37;;;;;;;8.41;51.32;97840.28;5304111;27;20108;-81
2022/01/30 03:28:01;;;;;;;13.30;3.50;;;;;;;8.68;50.64;97846.09;5304745;27;20117;-81
2022/01/30 03:30:30;;;;;;;9.88;3.42;;;;;;;8.33;51.62;97850.78;5304534;26;20066;-81
2022/01/30 03:32:57;;;;;;;11.27;3.80;;;;;;;7.82;53.22;97844.06;5304368;27;20478;-81
2022/01/30 03:35:24;;;;;;;10.77;3.40;;;;;;;8.97;49.73;97844.97;5304330;27;20450;-81
2022/01/30 03:37:51;;;;;;;9.40;3.40;;;;;;;8.93;49.64;97843.37;5304776;27;20061;-82
2022/01/30 03:40:18;;;;;;;12.35;3.85;;;;;;;9.61;46.97;97852.66;5305335;27;20057;-81
2022/01/30 03:42:45;;;;;;;12.85;4.20;;;;;;;9.24;47.68;97849.00;5305673;27;20144;-81
2022/01/30 03:45:12;;;;;;;15.63;4.60;;;;;;;9.37;46.99;97849.34;5305287;27;20359;-81
2022/01/30 03:47:39;;;;;;;12.60;4.20;;;;;;;8.35;49.48;97854.16;5304914;27;20694;-81
2022/01/30 03:50:07;;;;;;;14.60;4.20;;;;;;;8.34;49.73;97842.22;5305492;27;20403;-81
2022/01/30 03:52:34;;;;;;;11.18;4.50;;;;;;;8.08;50.34;97830.31;5305076;27;20118;-81
2022/01/30 03:55:01;;;;;;;12.20;4.40;;;;;;;7.59;51.82;97826.03;5305322;27;20053;-81
2022/01/30 03:57:28;;;;;;;14.07;4.95;;;;;;;7.71;51.45;97828.19;5305460;27;20073;-81
2022/01/30 03:59:54;;;;;;;;;;;;;;;7.50;52.05;97818.66;5305072;27;20053;-81
2022/01/30 04:02:21;;;;;;;14.75;4.35;;;;;;;7.21;53.46;97812.75;5305311;27;19996;-81
2022/01/30 04:04:48;;;;;;;13.30;4.32;;;;;;;6.74;54.37;97821.97;5305416;27;20056;-81
2022/01/30 04:07:16;;;;;;;13.25;4.50;;;;;;;7.53;53.15;97821.09;5304700;27;20077;-82
2022/01/30 04:09:43;;;;;;;11.05;4.35;;;;;;;7.74;52.12;97819.53;5305316;27;20080;-81
2022/01/30 04:12:13;;;;;;;11.35;4.20;;;;;;;7.43;52.34;97796.63;5286090;27;20063;-82
2022/01/30 04:14:41;;;;;;;13.27;4.43;;;;;;;6.30;54.82;97806.22;5304993;27;20097;-81
2022/01/30 04:17:13;;;;;;;13.70;3.87;;;;;;;6.71;53.12;97827.22;5305864;27;20349;-81
2022/01/30 04:19:40;;;;;;;16.00;5.30;;;;;;;6.93;51.09;97819.69;5286940;27;20116;-81
2022/01/30 04:22:07;;;;;;;15.18;4.72;;;;;;;6.66;52.62;97823.94;5305228;27;20120;-81
2022/01/30 04:24:34;;;;;;;11.75;4.40;;;;;;;6.77;51.48;97828.72;5305805;27;20044;-81
2022/01/30 04:27:00;;;;;;;;;;;;;;;6.56;52.41;97818.25;5305553;27;20033;-81
2022/01/30 04:29:28;;;;;;;17.30;4.93;;;;;;;6.88;51.85;97824.94;5305035;27;20020;-81
2022/01/30 04:31:55;;;;;;;13.15;4.50;;;;;;;6.44;52.40;97820.34;5304744;27;20057;-81
2022/01/30 04:34:23;;;;;;;15.00;4.68;;;;;;;6.62;52.04;97815.50;5304975;27;20072;-81
2022/01/30 04:37:01;;;;;;;16.17;5.03;;;;;;;5.89;53.94;97802.25;5305239;27;20729;-81
2022/01/30 04:42:31;;;;;;;16.90;5.90;;;;;;;5.90;54.53;97797.97;5304663;27;20111;-81
2022/01/30 04:58:49;;;;;;;12.55;4.80;;;;;;;6.11;54.33;97776.91;5304909;27;20136;-81
2022/01/30 05:03:58;;;;;;;15.15;4.50;;;;;;;6.04;54.79;97765.97;5304629;27;20060;-81
2022/01/30 05:06:54;;;;;;;12.75;4.32;;;;;;;6.50;53.10;97777.44;5305338;27;20107;-81
2022/01/30 05:09:12;;;;;;;17.57;5.13;;;;;;;6.36;53.83;97782.97;5303603;27;20033;-81
2022/01/30 05:11:39;;;;;;;11.38;4.82;;;;;;;6.12;54.29;97775.16;5304588;27;20146;-81
2022/01/30 05:14:07;;;;;;;13.77;4.78;;;;;;;6.48;53.87;97781.75;5304977;27;20064;-81
2022/01/30 05:16:35;;;;;;;12.43;4.40;;;;;;;6.36;54.71;97779.56;5304518;27;20061;-81
2022/01/30 05:19:02;;;;;;;13.05;4.62;;;;;;;6.87;52.58;97773.69;5305367;27;20072;-81
2022/01/30 05:21:29;;;;;;;13.88;4.95;;;;;;;6.42;53.18;97781.94;5304959;27;20144;-81
2022/01/30 05:23:57;;;;;;;14.40;5.22;;;;;;;6.35;53.34;97780.44;5304797;27;20104;-81
2022/01/30 05:26:25;;;;;;;15.25;4.78;;;;;;;6.74;51.84;97786.06;5305055;27;20546;-81
2022/01/30 05:28:53;;;;;;;13.88;4.25;;;;;;;7.03;50.83;97779.19;5305140;27;20112;-81
2022/01/30 05:31:20;;;;;;;10.88;4.05;;;;;;;6.64;52.18;97789.81;5304457;27;20101;-81
2022/01/30 05:33:47;;;;;;;12.57;4.30;;;;;;;7.21;50.92;97792.22;5305486;27;20050;-81
2022/01/30 05:36:14;;;;;;;11.40;3.55;;;;;;;7.28;51.55;97774.91;5305233;27;20440;-81
2022/01/30 05:38:42;;;;;;;11.70;3.67;;;;;;;7.43;51.58;97774.38;5304659;27;20470;-81
2022/01/30 05:41:10;;;;;;;9.68;3.50;;;;;;;7.13;52.39;97778.00;5305384;26;20080;-81
2022/01/30 05:43:38;;;;;;;10.82;3.60;;;;;;;7.63;51.41;97777.97;5305968;27;20144;-81
2022/01/30 05:46:15;;;;;;;12.13;3.58;;;;;;;7.78;50.68;97780.00;5305139;27;20060;-81
2022/01/30 05:48:43;;;;;;;10.35;3.65;;;;;;;7.51;51.88;97774.09;5287642;27;20065;-81
2022/01/30 05:51:11;;;;;;;12.60;4.00;;;;;;;8.08;50.10;97794.31;5304998;27;20070;-81
2022/01/30 05:53:37;;;;;;;12.07;3.58;;;;;;;8.51;48.38;97785.03;5305560;27;20022;-81
2022/01/30 05:56:05;;;;;;;;;;;;;;;8.07;48.54;97790.06;5305606;27;20097;-81
2022/01/30 05:58:32;;;;;;;15.00;4.05;;;;;;;7.94;48.35;97786.25;5305273;27;20090;-82
2022/01/30 06:00:59;;;;;;;;;;;;;;;7.89;48.20;97775.34;5305567;27;20061;-81
2022/01/30 06:03:29;;;;;;;11.95;4.37;;;;;;;7.83;47.32;97780.69;5306141;27;20012;-81
2022/01/30 06:05:56;;;;;;;11.77;4.57;;;;;;;7.28;49.10;97772.34;5304956;27;20116;-82
2022/01/30 06:11:06;;;;;;;15.52;4.97;;;;;;;8.23;46.26;97781.78;5306000;27;20060;-82
2022/01/30 06:13:33;;;;;;;12.70;4.57;;;;;;;8.17;46.44;97775.13;5305489;27;20058;-82
2022/01/30 06:16:00;;;;;;;14.85;4.57;;;;;;;8.48;45.51;97772.28;5306127;27;20144;-82
2022/01/30 06:18:27;;;;;;;13.07;4.37;;;;;;;7.77;47.00;97768.91;5306015;27;20091;-82
2022/01/30 06:20:54;;;;;;;;;;;;;;;6.92;49.64;97764.16;5305917;27;20131;-82
2022/01/30 06:23:22;;;;;;;13.02;4.90;;;;;;;7.14;49.43;97759.97;5306393;27;20009;-82
2022/01/30 06:25:49;;;;;;;11.93;4.20;;;;;;;8.05;46.99;97773.84;5306007;27;20093;-82
2022/01/30 06:28:16;;;;;;;;;;;;;;;8.62;45.37;97770.03;5306505;27;20108;-82
2022/01/30 06:30:44;;;;;;;14.63;4.90;;;;;;;8.53;45.56;97784.97;5306065;27;20013;-82
2022/01/30 06:33:11;;;;;;;13.65;4.70;;;;;;;8.74;44.86;97786.69;5305728;27;20531;-82
2022/01/30 06:35:38;;;;;;;13.27;4.87;;;;;;;8.53;44.69;97784.97;5306461;27;20077;-82
2022/01/30 06:38:05;;;;;;;16.70;5.37;;;;;;;8.05;46.39;97781.56;5306245;27;20734;-82
2022/01/30 06:40:32;;;;;;;12.93;4.87;;;;;;;7.56;47.32;97787.62;5305834;27;20060;-82
2022/01/30 06:42:58;;;;;;;;;;;;;;;7.83;46.85;97807.19;5306881;27;20101;-82
2022/01/30 06:45:31;;;;;;;11.60;4.60;;;;;;;8.09;46.14;97816.56;5306776;26;20732;-82
2022/01/30 06:47:58;;;;;;;16.20;5.00;;;;;;;8.57;45.34;97830.22;5306310;27;20072;-82
2022/01/30 06:50:26;;;;;;;;;;;;;;;8.63;45.51;97846.28;5307083;27;20029;-82
2022/01/30 06:52:53;;;;;;;14.55;5.22;;;;;;;8.56;45.62;97854.28;5306653;27;20008;-82
2022/01/30 06:55:20;;;;;;;12.70;5.12;;;;;;;8.17;47.52;97859.09;5306331;27;20069;-82
2022/01/30 06:57:47;;;;;;;16.08;5.53;;;;;;;8.52;47.05;97847.56;5306027;27;20109;-83
2022/01/30 07:00:14;;;;;;;13.40;5.35;;;;;;;8.94;45.44;97857.97;5306013;26;20621;-82
2022/01/30 07:02:41;;;;;;;15.93;5.82;;;;;;;9.47;44.18;97868.69;5305777;27;20026;-82
2022/01/30 07:05:08;;;;;;;13.18;4.87;;;;;;;9.03;44.41;97864.47;5306319;27;20061;-82
2022/01/30 07:07:36;;;;;;;14.27;5.05;;;;;;;9.40;43.44;97861.25;5306388;27;20108;-82
2022/01/30 07:10:06;;;;;;;10.95;4.35;;;;;;;8.65;45.39;97864.22;5305525;27;20056;-82
2022/01/30 07:12:33;;;;;;;17.00;5.47;;;;;;;9.43;43.88;97868.84;5305728;27;20049;-82
2022/01/30 07:15:00;;;;;;;14.93;4.53;;;;;;;9.14;45.22;97859.72;5306174;27;20644;-82
2022/01/30 07:17:27;;;;;;;10.45;3.80;;;;;;;8.81;46.27;97851.59;5305210;27;20078;-82
2022/01/30 07:19:54;;;;;;;;;;;;;;;8.45;48.52;97844.37;5306216;27;20403;-82
2022/01/30 07:22:21;;;;;;;8.45;2.87;;;;;;;8.50;49.33;97845.03;5304533;26;19964;-82
2022/01/30 07:24:47;;;;;;;;;;;;;;;8.72;50.89;97831.34;5304804;27;20052;-82
2022/01/30 07:27:14;;;;;;;9.73;3.25;;;;;;;8.96;50.70;97823.53;5304270;27;19976;-82
2022/01/30 07:29:41;;;;;;;10.30;3.17;;;;;;;9.19;51.39;97824.34;5303210;27;20120;-82
2022/01/30 07:32:08;;;;;;;7.75;2.45;;;;;;;9.63;50.84;97814.78;5303495;27;20049;-82
2022/01/30 07:34:35;;;;;;;;;;;;;;;9.57;50.62;97817.62;5304098;27;20423;-82
2022/01/30 07:37:02;;;;;;;8.63;2.55;;;;;;;9.40;50.76;97818.31;5303229;27;19972;-82
2022/01/30 07:39:31;;;;;;;6.82;2.70;;;;;;;9.16;51.68;97815.03;5303729;27;20061;-82
2022/01/30 07:41:59;;;;;;;8.57;3.03;;;;;;;9.69;50.66;97806.78;5302804;27;20120;-82
2022/01/30 07:44:26;;;;;;;7.82;3.15;;;;;;;9.72;50.54;97811.81;5302872;27;20072;-82
2022/01/30 07:46:53;;;;;;;8.13;2.78;;;;;;;9.71;49.79;97802.41;5303512;27;20030;-82
2022/01/30 07:49:20;;;;;;;8.63;2.97;;;;;;;10.02;48.98;97799.31;5303781;27;20112;-82
2022/01/30 07:51:46;;;;;;;9.23;2.55;;;;;;;10.01;49.03;97795.09;5303144;27;20057;-82
2022/01/30 07:54:13;;;;;;;;;;;;;;;10.33;48.23;97811.72;5304772;27;20395;-82
2022/01/30 07:56:40;;;;;;;7.40;2.60;;;;;;;10.26;47.96;97812.87;5304647;27;19968;-82
2022/01/30 07:59:09;;;;;;;7.65;2.47;;;;;;;10.35;47.79;97806.47;5285622;27;20061;-82
2022/01/30 08:01:36;;;;;;;;;;;;;;;9.80;49.12;97802.00;5305302;27;20035;-82
2022/01/30 08:04:06;;;;;;;7.70;2.80;;;;;;;9.55;50.04;97791.91;5305846;27;19956;-82
2022/01/30 08:06:33;;;;;;;10.07;3.15;;;;;;;10.01;48.90;97787.34;5305256;27;20146;-82
2022/01/30 08:09:01;;;;;;;9.15;2.62;;;;;;;10.69;47.43;97788.53;5305879;27;20071;-82
2022/01/30 08:11:29;;;;;;;10.45;2.65;;;;;;;10.82;46.69;97778.44;5305155;27;20039;-82
2022/01/30 08:13:56;;;;;;;9.02;2.50;;;;;;;10.27;47.52;97775.03;5305331;27;20032;-82
2022/01/30 08:16:26;;;;;;;9.13;2.80;;;;;;;10.62;46.59;97745.03;5304932;27;20076;-82
2022/01/30 08:18:54;;;;;;;7.72;2.70;;;;;;;10.75;46.45;97765.94;5305175;27;20116;-82
2022/01/30 08:21:23;;;;;;;6.47;2.20;;;;;;;10.83;46.36;97767.22;5304480;27;20057;-82
2022/01/30 08:23:50;;;;;;;9.77;2.70;;;;;;;10.85;46.40;97756.84;5305216;27;20116;-82
2022/01/30 08:26:17;;;;;;;6.87;2.03;;;;;;;11.15;45.72;97760.47;5305328;27;20069;-82
2022/01/30 08:28:44;;;;;;;5.97;2.20;;;;;;;10.81;46.88;97760.47;5306100;27;20066;-82
2022/01/30 08:31:11;;;;;;;;;;;;;;;11.07;46.30;97751.47;5306303;27;20719;-82
2022/01/30 08:33:38;;;;;;;6.57;1.95;;;;;;;11.34;45.01;97738.91;5306064;26;19982;-82
2022/01/30 08:36:05;;;;;;;5.80;1.58;;;;;;;11.84;44.47;97755.25;5305574;27;20735;-82
2022/01/30 08:38:32;;;;;;;6.95;1.75;;;;;;;12.03;43.58;97747.38;5305009;27;20111;-82
2022/01/30 08:40:59;;;;;;;5.40;1.50;;;;;;;12.23;43.42;97761.84;5303869;27;20733;-82
2022/01/30 08:43:26;;;;;;;1.92;0.95;;;;;;;11.09;45.07;97752.22;5304485;27;20031;-82
2022/01/30 08:45:53;;;;;;;6.07;1.87;;;;;;;11.95;43.67;97748.69;5304342;27;20113;-82
2022/01/30 08:48:21;;;;;;;3.67;1.77;;;;;;;11.83;44.26;97739.84;5303954;27;20025;-82
2022/01/30 08:50:48;;;;;;;1.12;0.80;;;;;;;11.95;43.73;97746.13;5303782;27;20462;-82
2022/01/30 08:53:15;;;;;;;3.45;1.20;;;;;;;11.61;43.54;97753.00;5303731;27;20105;-82
2022/01/30 08:55:43;;;;;;;3.83;1.12;;;;;;;11.03;45.74;97797.22;5302751;27;20042;-82
2022/01/30 08:58:10;;;;;;;2.90;0.80;;;;;;;10.85;45.96;97782.66;5302876;27;20098;-82
2022/01/30 09:00:42;;;;;;;4.65;1.30;;;;;;;10.93;45.76;97754.69;5302921;27;20052;-82
2022/01/30 09:03:10;;;;;;;2.25;0.93;;;;;;;10.45;46.97;97807.72;5303244;27;20021;-82
2022/01/30 09:05:37;;;;;;;2.10;1.00;;;;;;;10.56;45.14;97804.66;5303280;27;20045;-82
2022/01/30 09:08:05;;;;;;;3.62;1.00;;;;;;;10.79;44.32;97803.56;5303839;27;20437;-82
2022/01/30 09:10:36;;;;;;;2.92;1.40;;;;;;;10.59;44.31;97802.75;5303681;27;20030;-82
2022/01/30 09:13:04;;;;;;;5.95;1.75;;;;;;;10.93;43.93;97806.31;5303081;27;20116;-82
2022/01/30 09:15:38;;;;;;;5.78;1.45;;;;;;;10.95;44.04;97818.28;5302354;27;20025;-82
2022/01/30 09:18:08;;;;;;;2.78;1.30;;;;;;;10.78;44.60;97786.41;5302098;27;20121;-82
2022/01/30 09:20:42;;;;;;;6.30;1.23;;;;;;;10.64;45.42;97794.81;5301819;27;20125;-82
2022/01/30 09:23:10;;;;;;;4.07;0.93;;;;;;;10.88;45.30;97775.59;5282664;26;20047;-82
2022/01/30 09:25:42;;;;;;;4.82;1.40;;;;;;;10.86;45.07;97789.47;5304217;27;20104;-82
2022/01/30 09:28:09;;;;;;;5.50;1.52;;;;;;;10.93;44.57;97796.84;5303681;27;20082;-82
2022/01/30 09:30:37;;;;;;;6.12;1.48;;;;;;;11.06;43.67;97783.34;5302946;27;20096;-82
2022/01/30 09:33:04;;;;;;;3.03;1.17;;;;;;;11.34;43.13;97754.41;5302669;27;20063;-82
2022/01/30 09:35:31;;;;;;;1.15;0.75;;;;;;;11.80;41.24;97771.88;5301567;27;20120;-82
2022/01/30 09:37:58;;;;;;;3.30;1.15;;;;;;;10.97;40.87;97749.34;5302595;27;20081;-82
2022/01/30 09:40:25;;;;;;;4.00;1.30;;;;;;;10.81;41.98;97750.97;5303277;27;20105;-82
2022/01/30 09:42:51;;;;;;;;;;;;;;;10.92;41.84;97720.31;5301733;27;20049;-82
2022/01/30 09:45:20;;;;;;;4.22;0.98;;;;;;;10.61;43.08;97753.66;5282715;27;19973;-82
2022/01/30 09:47:48;;;;;;;2.12;0.88;;;;;;;10.64;42.00;97700.19;5302275;27;20072;-82
2022/01/30 09:50:17;;;;;;;3.03;1.23;;;;;;;10.70;41.17;97733.44;5301304;27;20119;-81
2022/01/30 09:52:44;;;;;;;3.05;1.05;;;;;;;10.77;41.48;97712.50;5301774;27;20663;-82
2022/01/30 09:55:12;;;;;;;3.17;0.95;;;;;;;11.39;40.62;97732.59;5301745;27;20395;-82
2022/01/30 09:57:40;;;;;;;4.75;1.37;;;;;;;11.29;39.42;97718.50;5301012;27;20071;-82
2022/01/30 10:00:09;;;;;;;3.10;1.00;;;;;;;11.13;39.66;97740.81;5301592;27;20394;-82
2022/01/30 10:02:40;;;;;;;4.53;1.33;;;;;;;10.67;41.31;97748.22;5300890;27;20117;-82
2022/01/30 10:05:08;;;;;;;2.55;1.02;;;;;;;11.05;39.55;97697.28;5301415;27;20161;-82
2022/01/30 10:07:45;;;;;;;5.68;1.23;;;;;;;11.10;40.10;97767.63;5301628;27;20466;-82
2022/01/30 10:10:19;;;;;;;2.55;0.85;;;;;;;11.01;40.37;97810.22;5301928;27;20105;-82
2022/01/30 10:13:11;;;;;;;8.13;1.02;;;;;;;10.66;40.92;97769.78;5300646;27;20109;-82
2022/01/30 10:15:53;;;;;;;2.60;0.95;;;;;;;10.56;41.29;97784.03;5301798;27;20081;-82
2022/01/30 10:18:21;;;;;;;3.75;0.90;;;;;;;10.85;41.57;97792.97;5301078;27;20068;-82
2022/01/30 10:20:49;;;;;;;4.03;0.95;;;;;;;10.73;41.46;97818.44;5301100;27;20535;-82
2022/01/30 10:23:18;;;;;;;4.37;1.20;;;;;;;11.21;41.16;97801.50;5301255;27;20018;-82
2022/01/30 10:25:47;;;;;;;1.77;0.90;;;;;;;11.99;39.71;97815.66;5300732;27;20459;-82
2022/01/30 10:28:15;;;;;;;4.15;1.02;;;;;;;11.55;40.78;97838.59;5301525;27;20061;-82
2022/01/30 10:30:53;;;;;;;6.30;1.00;;;;;;;11.13;41.08;97805.37;5301229;27;20067;-82
2022/01/30 10:33:22;;;;;;;3.65;1.10;;;;;;;11.34;41.55;97812.06;5300750;27;20049;-82
2022/01/30 10:35:59;;;;;;;5.45;1.20;;;;;;;11.34;40.65;97811.22;5300957;27;20112;-82
2022/01/30 10:38:32;;;;;;;4.15;1.00;;;;;;;11.73;40.98;97819.56;5301076;27;20061;-82
2022/01/30 10:41:10;;;;;;;3.50;1.48;;;;;;;11.41;39.87;97810.84;5300870;27;20110;-82
2022/01/30 10:43:55;;;;;;;2.75;1.00;;;;;;;11.02;40.59;97835.13;5301236;27;20055;-82
2022/01/30 10:46:28;;;;;;;2.33;0.82;;;;;;;11.57;39.48;97836.75;5300338;27;20152;-82
2022/01/30 10:48:58;;;;;;;4.68;1.20;;;;;;;11.49;39.90;97741.56;5300804;27;20080;-82
2022/01/30 10:51:30;;;;;;;3.75;1.17;;;;;;;10.98;40.19;97809.53;5300760;26;20067;-82
2022/01/30 10:53:59;;;;;;;4.32;1.30;;;;;;;11.06;40.78;97820.34;5300531;27;20458;-82
2022/01/30 10:56:29;;;;;;;7.30;1.20;;;;;;;11.06;40.10;97766.13;5300174;27;20112;-82
2022/01/30 10:59:12;;;;;;;2.40;0.88;;;;;;;11.39;41.04;97809.28;5299769;27;20130;-81
2022/01/30 11:01:45;;;;;;;4.97;1.50;;;;;;;11.88;39.68;97815.38;5298880;27;20067;-81
2022/01/30 11:04:26;;;;;;;5.95;1.50;;;;;;;10.93;39.67;97767.59;5299698;27;20498;-82
2022/01/30 11:06:54;;;;;;;3.10;1.05;;;;;;;10.65;40.14;97773.28;5299386;27;20369;-81
2022/01/30 11:09:26;;;;;;;2.62;1.02;;;;;;;11.09;39.87;97801.28;5299727;27;20067;-82
2022/01/30 11:12:03;;;;;;;2.62;0.98;;;;;;;11.02;39.13;97818.78;5299471;27;20139;-81
2022/01/30 11:14:51;;;;;;;4.03;1.40;;;;;;;11.10;40.52;97829.59;5299288;27;20045;-82
2022/01/30 11:17:21;;;;;;;;;;;;;;;11.12;39.02;97832.09;5300011;27;20071;-82
2022/01/30 11:19:52;;;;;;;3.95;1.00;;;;;;;11.18;39.40;97818.91;5299687;27;20031;-82
2022/01/30 11:22:21;;;;;;;3.75;1.17;;;;;;;10.88;39.28;97828.97;5298998;26;20124;-81
2022/01/30 11:24:51;;;;;;;2.47;1.02;;;;;;;11.21;38.15;97827.34;5299549;27;20313;-82
2022/01/30 11:27:21;;;;;;;6.05;1.10;;;;;;;11.45;37.78;97839.94;5299617;27;20066;-82
2022/01/30 11:29:49;;;;;;;4.90;1.40;;;;;;;11.53;37.99;97786.16;5299254;27;20114;-82
2022/01/30 11:32:17;;;;;;;4.35;1.35;;;;;;;10.90;38.59;97781.50;5299189;27;20049;-82
2022/01/30 11:34:50;;;;;;;2.87;1.02;;;;;;;10.54;38.20;97789.25;5299220;27;20045;-82
2022/01/30 11:37:24;;;;;;;2.45;1.00;;;;;;;10.70;37.45;97763.56;5299510;27;20403;-82
2022/01/30 11:39:52;;;;;;;2.95;0.93;;;;;;;10.63;37.58;97786.25;5280081;27;20120;-81
2022/01/30 11:42:25;;;;;;;4.87;1.33;;;;;;;10.71;37.40;97816.84;5298567;27;20109;-82
2022/01/30 11:45:03;;;;;;;6.47;1.02;;;;;;;10.89;36.71;97795.31;5299597;27;20049;-81
2022/01/30 11:47:51;;;;;;;5.30;1.20;;;;;;;11.84;34.96;97809.56;5299695;27;20069;-82
2022/01/30 11:50:20;;;;;;;5.07;1.20;;;;;;;11.73;36.48;97808.41;5298924;27;20113;-81
2022/01/30 11:52:54;;;;;;;4.25;1.10;;;;;;;11.53;33.74;97807.66;5299330;27;20542;-82
2022/01/30 11:55:39;;;;;;;2.28;0.80;;;;;;;11.19;34.57;97793.00;5299487;27;20064;-82
2022/01/30 11:58:07;;;;;;;3.92;1.10;;;;;;;11.28;33.79;97765.91;5299230;27;20061;-82
2022/01/30 12:00:41;;;;;;;7.12;1.30;;;;;;;12.11;33.34;97796.91;5300111;27;20121;-82
2022/01/30 12:03:30;;;;;;;5.03;1.08;;;;;;;11.35;34.53;97787.06;5299607;27;20053;-82
2022/01/30 12:06:20;;;;;;;3.92;1.55;;;;;;;11.29;36.04;97775.31;5301392;27;20104;-82
2022/01/30 12:08:48;;;;;;;3.45;1.12;;;;;;;11.25;36.19;97776.34;5300143;27;20117;-86
2022/01/30 13:25:10;;;;;;;5.90;1.45;;;;;;;10.45;33.54;97890.28;5305162;26;20384;-83
2022/01/30 13:27:39;;;;;;;4.87;1.33;;;;;;;10.57;33.72;97879.41;5305363;27;20055;-83
2022/01/30 13:33:34;;;;;;;2.37;0.98;;;;;;;10.47;32.53;97867.81;5283470;27;20072;-85
2022/01/30 14:53:54;;;;;;;3.35;1.40;;;;;;;8.99;35.36;97874.87;5298135;27;20167;-83
2022/01/30 14:57:06;;;;;;;3.95;1.20;;;;;;;8.65;36.08;97854.75;5299323;27;20049;-84
2022/01/30 14:59:53;;;;;;;4.12;1.05;;;;;;;8.84;35.68;97854.06;5196805;27;20393;-83
2022/01/30 15:03:04;;;;;;;4.72;1.30;;;;;;;8.29;35.82;97832.94;5211697;27;20201;-83
2022/01/30 15:06:08;;;;;;;3.83;1.30;;;;;;;8.64;35.82;97893.41;5212141;27;20054;-83
2022/01/30 15:23:49;;;;;;;5.60;1.17;;;;;;;8.13;36.57;97868.66;5254491;27;20371;-83
2022/01/30 15:26:26;;;;;;;5.60;1.20;;;;;;;8.34;36.15;97885.06;5254600;27;20137;-82
2022/01/30 15:29:33;;;;;;;4.47;0.90;;;;;;;8.13;36.66;97889.22;5248062;27;20242;-83
2022/01/30 15:32:20;;;;;;;5.95;1.20;;;;;;;7.76;37.56;97879.38;5236093;27;20907;-83